sensor_id;sensor_type;location;lat;lon;timestamp;pressure;altitude;pressure_sealevel;temperature;humidity
9325;BME280;4701;51.566;6.776;2023-05-03T07:03:40;102615.69;;;5.84;83.36
9325;BME280;4701;51.566;6.776;2023-05-03T07:06:42;102617.09;;;5.94;84.08
9325;BME280;4701;51.566;6.776;2023-05-03T07:09:44;102610.16;;;6.06;84.67
9325;BME280;4701;51.566;6.776;2023-05-03T07:12:45;102613.84;;;6.20;84.50
9325;BME280;4701;51.566;6.776;2023-05-03T07:15:47;102604.16;;;6.32;84.73
9325;BME280;4701;51.566;6.776;2023-05-03T07:18:50;102613.28;;;6.46;84.24
9325;BME280;4701;51.566;6.776;2023-05-03T07:21:53;102609.19;;;6.57;84.04
9325;BME280;4701;51.566;6.776;2023-05-03T07:24:55;102599.69;;;6.67;83.72
9325;BME280;4701;51.566;6.776;2023-05-03T07:27:59;102598.34;;;6.78;82.95
9325;BME280;4701;51.566;6.776;2023-05-03T07:31:01;102600.72;;;6.88;82.47
9325;BME280;4701;51.566;6.776;2023-05-03T07:34:05;102596.59;;;6.98;82.29
9325;BME280;4701;51.566;6.776;2023-05-03T07:37:07;102581.66;;;7.09;81.53
9325;BME280;4701;51.566;6.776;2023-05-03T07:40:09;102581.31;;;7.18;81.09
9325;BME280;4701;51.566;6.776;2023-05-03T07:43:11;102573.00;;;7.27;80.19
9325;BME280;4701;51.566;6.776;2023-05-03T07:46:13;102575.75;;;7.33;79.98
9325;BME280;4701;51.566;6.776;2023-05-03T07:49:17;102581.84;;;7.42;79.11
9325;BME280;4701;51.566;6.776;2023-05-03T07:52:19;102582.50;;;7.50;78.31
9325;BME280;4701;51.566;6.776;2023-05-03T07:55:21;102583.19;;;7.59;77.49
9325;BME280;4701;51.566;6.776;2023-05-03T07:58:22;102585.91;;;7.66;77.02
9325;BME280;4701;51.566;6.776;2023-05-03T08:01:24;102571.34;;;7.73;76.30
9325;BME280;4701;51.566;6.776;2023-05-03T08:04:28;102572.22;;;7.80;75.84
9325;BME280;4701;51.566;6.776;2023-05-03T08:07:30;102569.31;;;7.88;75.45
9325;BME280;4701;51.566;6.776;2023-05-03T08:10:32;102572.88;;;7.95;75.20
9325;BME280;4701;51.566;6.776;2023-05-03T08:13:37;102571.00;;;8.03;74.77
9325;BME280;4701;51.566;6.776;2023-05-03T08:16:39;102562.88;;;8.09;74.05
9325;BME280;4701;51.566;6.776;2023-05-03T08:19:42;102563.94;;;8.15;73.71
9325;BME280;4701;51.566;6.776;2023-05-03T08:22:44;102557.47;;;8.22;73.13
9325;BME280;4701;51.566;6.776;2023-05-03T08:25:46;102569.19;;;8.29;73.20
9325;BME280;4701;51.566;6.776;2023-05-03T08:28:48;102565.66;;;8.35;72.45
9325;BME280;4701;51.566;6.776;2023-05-03T08:31:50;102564.00;;;8.41;72.47
9325;BME280;4701;51.566;6.776;2023-05-03T08:34:54;102566.72;;;8.48;71.95
9325;BME280;4701;51.566;6.776;2023-05-03T08:37:56;102556.88;;;8.53;71.86
9325;BME280;4701;51.566;6.776;2023-05-03T08:41:06;102557.72;;;8.60;71.53
9325;BME280;4701;51.566;6.776;2023-05-03T08:44:11;102561.50;;;8.66;71.42
9325;BME280;4701;51.566;6.776;2023-05-03T08:47:20;102548.09;;;8.71;70.77
9325;BME280;4701;51.566;6.776;2023-05-03T08:50:24;102550.81;;;8.78;70.65
9325;BME280;4701;51.566;6.776;2023-05-03T08:53:26;102549.97;;;8.84;70.25
9325;BME280;4701;51.566;6.776;2023-05-03T08:56:33;102544.72;;;8.89;70.10
9325;BME280;4701;51.566;6.776;2023-05-03T08:59:47;102544.72;;;8.95;70.20
9325;BME280;4701;51.566;6.776;2023-05-03T09:02:49;102537.63;;;9.01;69.96
9325;BME280;4701;51.566;6.776;2023-05-03T09:05:52;102536.97;;;9.05;69.72
9325;BME280;4701;51.566;6.776;2023-05-03T09:08:55;102539.66;;;9.12;69.72
9325;BME280;4701;51.566;6.776;2023-05-03T09:11:57;102538.00;;;9.18;69.54
9325;BME280;4701;51.566;6.776;2023-05-03T09:14:59;102539.00;;;9.23;69.29
9325;BME280;4701;51.566;6.776;2023-05-03T09:18:09;102531.66;;;9.30;68.81
9325;BME280;4701;51.566;6.776;2023-05-03T09:21:17;102527.47;;;9.34;68.97
9325;BME280;4701;51.566;6.776;2023-05-03T09:24:20;102523.03;;;9.40;68.92
9325;BME280;4701;51.566;6.776;2023-05-03T09:27:23;102522.16;;;9.46;68.65
9325;BME280;4701;51.566;6.776;2023-05-03T09:30:25;102531.38;;;9.52;68.23
9325;BME280;4701;51.566;6.776;2023-05-03T09:33:28;102532.38;;;9.57;67.85
9325;BME280;4701;51.566;6.776;2023-05-03T09:36:43;102525.22;;;9.63;67.48
9325;BME280;4701;51.566;6.776;2023-05-03T09:39:46;102524.59;;;9.67;67.72
9325;BME280;4701;51.566;6.776;2023-05-03T09:43:05;102519.09;;;9.74;68.08
9325;BME280;4701;51.566;6.776;2023-05-03T09:46:09;102513.63;;;9.80;67.92
9325;BME280;4701;51.566;6.776;2023-05-03T09:49:11;102506.47;;;9.86;67.81
9325;BME280;4701;51.566;6.776;2023-05-03T09:52:15;102505.59;;;9.92;67.42
9325;BME280;4701;51.566;6.776;2023-05-03T09:55:17;102497.59;;;9.97;67.01
9325;BME280;4701;51.566;6.776;2023-05-03T09:58:21;102504.91;;;10.03;67.16
9325;BME280;4701;51.566;6.776;2023-05-03T10:01:25;102495.84;;;10.09;66.33
9325;BME280;4701;51.566;6.776;2023-05-03T10:04:31;102485.09;;;10.14;66.32
9325;BME280;4701;51.566;6.776;2023-05-03T10:07:39;102492.44;;;10.20;66.41
9325;BME280;4701;51.566;6.776;2023-05-03T10:10:43;102490.69;;;10.26;66.70
9325;BME280;4701;51.566;6.776;2023-05-03T10:13:46;102488.97;;;10.32;66.41
9325;BME280;4701;51.566;6.776;2023-05-03T10:16:50;102483.69;;;10.37;66.02
9325;BME280;4701;51.566;6.776;2023-05-03T10:19:54;102489.91;;;10.44;65.08
9325;BME280;4701;51.566;6.776;2023-05-03T10:23:10;102492.81;;;10.49;65.68
9325;BME280;4701;51.566;6.776;2023-05-03T10:26:12;102485.63;;;10.54;65.65
9325;BME280;4701;51.566;6.776;2023-05-03T10:29:46;102496.47;;;10.61;65.74
9325;BME280;4701;51.566;6.776;2023-05-03T10:32:51;102498.28;;;10.67;65.93
9325;BME280;4701;51.566;6.776;2023-05-03T10:35:53;102496.81;;;10.71;65.23
9325;BME280;4701;51.566;6.776;2023-05-03T10:38:57;102508.47;;;10.78;65.14
9325;BME280;4701;51.566;6.776;2023-05-03T10:42:01;102492.25;;;10.83;64.15
9325;BME280;4701;51.566;6.776;2023-05-03T10:45:06;102480.69;;;10.88;63.85
9325;BME280;4701;51.566;6.776;2023-05-03T10:48:16;102473.69;;;10.92;63.32
9325;BME280;4701;51.566;6.776;2023-05-03T10:51:34;102473.88;;;10.97;63.93
9325;BME280;4701;51.566;6.776;2023-05-03T10:54:39;102471.50;;;11.00;63.69
9325;BME280;4701;51.566;6.776;2023-05-03T10:57:42;102471.66;;;11.06;63.41
9325;BME280;4701;51.566;6.776;2023-05-03T11:00:46;102469.91;;;11.11;63.32
9325;BME280;4701;51.566;6.776;2023-05-03T11:03:56;102466.47;;;11.16;62.95
9325;BME280;4701;51.566;6.776;2023-05-03T11:07:01;102458.47;;;11.21;63.29
9325;BME280;4701;51.566;6.776;2023-05-03T11:10:16;102446.38;;;11.28;62.69
9325;BME280;4701;51.566;6.776;2023-05-03T11:13:21;102441.28;;;11.32;60.68
9325;BME280;4701;51.566;6.776;2023-05-03T11:16:23;102447.75;;;11.37;61.36
9325;BME280;4701;51.566;6.776;2023-05-03T11:19:25;102443.47;;;11.42;61.57
9325;BME280;4701;51.566;6.776;2023-05-03T11:22:27;102445.31;;;11.48;61.58
9325;BME280;4701;51.566;6.776;2023-05-03T11:25:30;102443.53;;;11.53;61.58
9325;BME280;4701;51.566;6.776;2023-05-03T11:28:33;102438.19;;;11.58;61.23
9325;BME280;4701;51.566;6.776;2023-05-03T11:31:35;102440.00;;;11.64;61.13
9325;BME280;4701;51.566;6.776;2023-05-03T11:34:37;102440.97;;;11.70;61.66
9325;BME280;4701;51.566;6.776;2023-05-03T11:37:41;102429.97;;;11.77;61.86
9325;BME280;4701;51.566;6.776;2023-05-03T11:40:45;102425.50;;;11.82;61.93
9325;BME280;4701;51.566;6.776;2023-05-03T11:43:47;102428.94;;;11.89;61.88
9325;BME280;4701;51.566;6.776;2023-05-03T11:46:49;102433.47;;;11.95;61.15
9325;BME280;4701;51.566;6.776;2023-05-03T11:49:52;102426.22;;;12.01;60.82
9325;BME280;4701;51.566;6.776;2023-05-03T11:52:54;102440.59;;;12.08;60.66
9325;BME280;4701;51.566;6.776;2023-05-03T11:55:59;102431.25;;;12.16;59.89
9325;BME280;4701;51.566;6.776;2023-05-03T11:59:01;102425.91;;;12.21;59.25
9325;BME280;4701;51.566;6.776;2023-05-03T12:02:03;102430.16;;;12.28;59.63
9325;BME280;4701;51.566;6.776;2023-05-03T12:05:07;102440.16;;;12.34;58.90
9325;BME280;4701;51.566;6.776;2023-05-03T12:08:09;102440.91;;;12.41;58.93
9325;BME280;4701;51.566;6.776;2023-05-03T12:11:12;102431.22;;;12.50;59.34
9325;BME280;4701;51.566;6.776;2023-05-03T12:14:14;102434.19;;;12.61;58.41
9325;BME280;4701;51.566;6.776;2023-05-03T12:17:34;102434.81;;;12.74;58.74
9325;BME280;4701;51.566;6.776;2023-05-03T12:20:38;102418.34;;;12.86;59.61
9325;BME280;4701;51.566;6.776;2023-05-03T12:23:40;102415.34;;;12.99;59.57
9325;BME280;4701;51.566;6.776;2023-05-03T12:26:44;102418.63;;;13.13;59.24
9325;BME280;4701;51.566;6.776;2023-05-03T12:29:46;102406.03;;;13.23;58.71
9325;BME280;4701;51.566;6.776;2023-05-03T12:32:48;102404.03;;;13.36;58.70
9325;BME280;4701;51.566;6.776;2023-05-03T12:35:50;102404.84;;;13.48;57.87
9325;BME280;4701;51.566;6.776;2023-05-03T12:38:52;102390.25;;;13.59;57.48
9325;BME280;4701;51.566;6.776;2023-05-03T12:41:55;102392.66;;;13.72;56.49
9325;BME280;4701;51.566;6.776;2023-05-03T12:44:58;102387.44;;;13.87;55.78
9325;BME280;4701;51.566;6.776;2023-05-03T12:47:59;102377.88;;;14.07;55.99
9325;BME280;4701;51.566;6.776;2023-05-03T12:51:02;102373.56;;;14.27;55.42
9325;BME280;4701;51.566;6.776;2023-05-03T12:54:04;102374.13;;;14.46;55.72
9325;BME280;4701;51.566;6.776;2023-05-03T12:57:08;102359.25;;;14.64;55.18
9325;BME280;4701;51.566;6.776;2023-05-03T13:00:11;102362.53;;;14.83;54.71
9325;BME280;4701;51.566;6.776;2023-05-03T13:03:13;102354.78;;;15.01;54.61
9325;BME280;4701;51.566;6.776;2023-05-03T13:06:15;102353.63;;;15.19;53.16
9325;BME280;4701;51.566;6.776;2023-05-03T13:09:18;102343.03;;;15.33;53.56
9325;BME280;4701;51.566;6.776;2023-05-03T13:12:22;102340.47;;;15.48;53.79
9325;BME280;4701;51.566;6.776;2023-05-03T13:15:25;102334.81;;;15.60;54.25
9325;BME280;4701;51.566;6.776;2023-05-03T13:18:27;102329.97;;;15.72;53.70
9325;BME280;4701;51.566;6.776;2023-05-03T13:21:28;102319.31;;;15.80;52.78
9325;BME280;4701;51.566;6.776;2023-05-03T13:24:31;102306.44;;;15.91;52.10
9325;BME280;4701;51.566;6.776;2023-05-03T13:27:34;102307.91;;;15.99;51.07
9325;BME280;4701;51.566;6.776;2023-05-03T13:30:36;102302.16;;;16.05;51.07
9325;BME280;4701;51.566;6.776;2023-05-03T13:33:37;102300.25;;;16.11;50.64
9325;BME280;4701;51.566;6.776;2023-05-03T13:36:40;102297.28;;;16.17;51.65
9325;BME280;4701;51.566;6.776;2023-05-03T13:39:41;102294.00;;;16.25;50.83
9325;BME280;4701;51.566;6.776;2023-05-03T13:42:45;102291.56;;;16.29;50.05
9325;BME280;4701;51.566;6.776;2023-05-03T13:45:48;102288.56;;;16.36;50.85
9325;BME280;4701;51.566;6.776;2023-05-03T13:48:52;102286.69;;;16.41;51.53
9325;BME280;4701;51.566;6.776;2023-05-03T13:51:55;102281.19;;;16.46;51.25
9325;BME280;4701;51.566;6.776;2023-05-03T13:54:57;102271.59;;;16.54;50.07
9325;BME280;4701;51.566;6.776;2023-05-03T13:58:02;102274.34;;;16.59;50.31
9325;BME280;4701;51.566;6.776;2023-05-03T14:01:04;102264.22;;;16.64;48.93
9325;BME280;4701;51.566;6.776;2023-05-03T14:04:09;102260.66;;;16.69;48.80
9325;BME280;4701;51.566;6.776;2023-05-03T14:07:10;102248.59;;;16.75;49.87
9325;BME280;4701;51.566;6.776;2023-05-03T14:10:12;102250.25;;;16.81;50.03
9325;BME280;4701;51.566;6.776;2023-05-03T14:13:16;102243.38;;;16.89;49.82
9325;BME280;4701;51.566;6.776;2023-05-03T14:16:19;102246.69;;;16.96;48.83
9325;BME280;4701;51.566;6.776;2023-05-03T14:19:21;102239.78;;;17.03;49.24
9325;BME280;4701;51.566;6.776;2023-05-03T14:22:23;102224.41;;;17.08;47.06
9325;BME280;4701;51.566;6.776;2023-05-03T14:25:25;102229.88;;;17.13;45.30
9325;BME280;4701;51.566;6.776;2023-05-03T14:28:29;102230.19;;;17.16;46.96
9325;BME280;4701;51.566;6.776;2023-05-03T14:31:31;102219.97;;;17.22;47.42
9325;BME280;4701;51.566;6.776;2023-05-03T14:34:33;102234.03;;;17.25;47.72
9325;BME280;4701;51.566;6.776;2023-05-03T14:37:35;102229.06;;;17.27;46.81
9325;BME280;4701;51.566;6.776;2023-05-03T14:40:37;102224.66;;;17.31;46.09
9325;BME280;4701;51.566;6.776;2023-05-03T14:43:41;102221.38;;;17.34;46.83
9325;BME280;4701;51.566;6.776;2023-05-03T14:46:42;102210.88;;;17.36;46.45
9325;BME280;4701;51.566;6.776;2023-05-03T14:49:44;102207.31;;;17.41;46.74
9325;BME280;4701;51.566;6.776;2023-05-03T14:52:46;102207.56;;;17.45;46.58
9325;BME280;4701;51.566;6.776;2023-05-03T14:55:48;102213.09;;;17.50;47.22
9325;BME280;4701;51.566;6.776;2023-05-03T14:58:52;102208.97;;;17.52;46.95
9325;BME280;4701;51.566;6.776;2023-05-03T15:01:54;102203.69;;;17.56;47.36
9325;BME280;4701;51.566;6.776;2023-05-03T15:04:56;102199.28;;;17.60;45.79
9325;BME280;4701;51.566;6.776;2023-05-03T15:07:58;102195.41;;;17.61;44.65
9325;BME280;4701;51.566;6.776;2023-05-03T15:11:00;102195.72;;;17.64;45.83
9325;BME280;4701;51.566;6.776;2023-05-03T15:14:04;102209.47;;;17.69;46.68
9325;BME280;4701;51.566;6.776;2023-05-03T15:17:06;102197.66;;;17.69;44.84
9325;BME280;4701;51.566;6.776;2023-05-03T15:20:09;102201.22;;;17.74;45.67
9325;BME280;4701;51.566;6.776;2023-05-03T15:23:15;102209.22;;;17.76;45.19
9325;BME280;4701;51.566;6.776;2023-05-03T15:26:17;102186.06;;;17.77;44.28
9325;BME280;4701;51.566;6.776;2023-05-03T15:29:20;102186.31;;;17.81;43.16
9325;BME280;4701;51.566;6.776;2023-05-03T15:32:23;102185.19;;;17.82;43.82
9325;BME280;4701;51.566;6.776;2023-05-03T15:35:24;102177.47;;;17.84;45.04
9325;BME280;4701;51.566;6.776;2023-05-03T15:38:26;102182.72;;;17.85;45.02
9325;BME280;4701;51.566;6.776;2023-05-03T15:41:29;102180.19;;;17.89;45.23
9325;BME280;4701;51.566;6.776;2023-05-03T15:44:35;102184.34;;;17.91;45.22
9325;BME280;4701;51.566;6.776;2023-05-03T15:47:37;102182.97;;;17.94;45.39
9325;BME280;4701;51.566;6.776;2023-05-03T15:50:39;102174.38;;;17.95;44.59
9325;BME280;4701;51.566;6.776;2023-05-03T15:53:40;102182.94;;;17.99;45.32
9325;BME280;4701;51.566;6.776;2023-05-03T15:56:43;102173.56;;;18.00;43.97
9325;BME280;4701;51.566;6.776;2023-05-03T15:59:46;102180.72;;;18.01;43.82
9325;BME280;4701;51.566;6.776;2023-05-03T16:02:49;102177.38;;;18.04;43.65
9325;BME280;4701;51.566;6.776;2023-05-03T16:05:51;102168.84;;;18.05;44.11
9325;BME280;4701;51.566;6.776;2023-05-03T16:08:53;102151.16;;;18.06;44.62
9325;BME280;4701;51.566;6.776;2023-05-03T16:11:54;102158.06;;;18.09;44.14
9325;BME280;4701;51.566;6.776;2023-05-03T16:14:58;102153.09;;;18.11;43.59
9325;BME280;4701;51.566;6.776;2023-05-03T16:18:00;102158.03;;;18.14;43.71
9325;BME280;4701;51.566;6.776;2023-05-03T16:21:02;102158.59;;;18.16;43.79
9325;BME280;4701;51.566;6.776;2023-05-03T16:24:04;102157.19;;;18.19;42.96
9325;BME280;4701;51.566;6.776;2023-05-03T16:27:07;102149.44;;;18.21;43.41
9325;BME280;4701;51.566;6.776;2023-05-03T16:30:10;102149.44;;;18.21;42.74
9325;BME280;4701;51.566;6.776;2023-05-03T16:33:12;102149.44;;;18.21;42.29
9325;BME280;4701;51.566;6.776;2023-05-03T16:36:14;102145.88;;;18.20;41.61
9325;BME280;4701;51.566;6.776;2023-05-03T16:39:18;102141.97;;;18.21;42.08
9325;BME280;4701;51.566;6.776;2023-05-03T16:42:20;102135.38;;;18.22;43.11
9325;BME280;4701;51.566;6.776;2023-05-03T16:45:23;102133.97;;;18.25;43.15
9325;BME280;4701;51.566;6.776;2023-05-03T16:48:25;102134.53;;;18.27;43.12
9325;BME280;4701;51.566;6.776;2023-05-03T16:51:27;102137.28;;;18.27;43.15
9325;BME280;4701;51.566;6.776;2023-05-03T16:54:29;102132.31;;;18.29;42.68
9325;BME280;4701;51.566;6.776;2023-05-03T16:57:31;102130.34;;;18.29;43.15
9325;BME280;4701;51.566;6.776;2023-05-03T17:00:35;102117.69;;;18.28;41.39
9325;BME280;4701;51.566;6.776;2023-05-03T17:03:39;102135.06;;;18.29;41.04
9325;BME280;4701;51.566;6.776;2023-05-03T17:06:44;102122.91;;;18.30;42.79
9325;BME280;4701;51.566;6.776;2023-05-03T17:09:49;102125.66;;;18.30;43.19
9325;BME280;4701;51.566;6.776;2023-05-03T17:12:52;102130.66;;;18.28;42.32
9325;BME280;4701;51.566;6.776;2023-05-03T17:15:57;102129.00;;;18.27;42.51
9325;BME280;4701;51.566;6.776;2023-05-03T17:18:59;102119.34;;;18.24;42.78
9325;BME280;4701;51.566;6.776;2023-05-03T17:22:01;102115.53;;;18.20;42.59
9325;BME280;4701;51.566;6.776;2023-05-03T17:25:03;102112.22;;;18.18;42.51
9325;BME280;4701;51.566;6.776;2023-05-03T17:28:05;102111.66;;;18.16;43.31
9325;BME280;4701;51.566;6.776;2023-05-03T17:31:09;102107.25;;;18.15;44.23
9325;BME280;4701;51.566;6.776;2023-05-03T17:34:12;102114.16;;;18.12;43.81
9325;BME280;4701;51.566;6.776;2023-05-03T17:37:14;102109.50;;;18.08;43.57
9325;BME280;4701;51.566;6.776;2023-05-03T17:40:16;102103.72;;;18.04;44.50
9325;BME280;4701;51.566;6.776;2023-05-03T17:43:18;102103.22;;;17.97;42.70
9325;BME280;4701;51.566;6.776;2023-05-03T17:46:22;102099.38;;;17.88;42.30
9325;BME280;4701;51.566;6.776;2023-05-03T17:49:25;102106.88;;;17.83;43.28
9325;BME280;4701;51.566;6.776;2023-05-03T17:52:29;102101.94;;;17.74;43.71
9325;BME280;4701;51.566;6.776;2023-05-03T17:55:36;102105.28;;;17.66;43.58
9325;BME280;4701;51.566;6.776;2023-05-03T17:58:38;102108.03;;;17.56;43.76
9325;BME280;4701;51.566;6.776;2023-05-03T18:01:42;102104.19;;;17.47;44.29
9325;BME280;4701;51.566;6.776;2023-05-03T18:04:44;102100.63;;;17.36;44.18
9325;BME280;4701;51.566;6.776;2023-05-03T18:07:46;102101.78;;;17.25;44.43
9325;BME280;4701;51.566;6.776;2023-05-03T18:10:48;102098.78;;;17.17;45.08
9325;BME280;4701;51.566;6.776;2023-05-03T18:13:51;102096.28;;;17.05;44.09
9325;BME280;4701;51.566;6.776;2023-05-03T18:16:54;102095.47;;;16.94;45.14
9325;BME280;4701;51.566;6.776;2023-05-03T18:19:56;102098.78;;;16.86;45.74
9325;BME280;4701;51.566;6.776;2023-05-03T18:22:58;102100.44;;;16.77;46.49
9325;BME280;4701;51.566;6.776;2023-05-03T18:26:00;102101.56;;;16.66;46.57
9325;BME280;4701;51.566;6.776;2023-05-03T18:29:05;102104.25;;;16.56;46.90
9325;BME280;4701;51.566;6.776;2023-05-03T18:32:09;102101.22;;;16.47;47.60
9325;BME280;4701;51.566;6.776;2023-05-03T18:35:14;102104.25;;;16.41;47.66
9325;BME280;4701;51.566;6.776;2023-05-03T18:38:16;102089.38;;;16.32;48.45
9325;BME280;4701;51.566;6.776;2023-05-03T18:41:20;102098.16;;;16.23;48.39
9325;BME280;4701;51.566;6.776;2023-05-03T18:44:28;102096.75;;;16.16;48.04
9325;BME280;4701;51.566;6.776;2023-05-03T18:47:36;102094.81;;;16.06;47.98
9325;BME280;4701;51.566;6.776;2023-05-03T18:50:38;102098.91;;;15.99;48.11
9325;BME280;4701;51.566;6.776;2023-05-03T18:53:42;102093.94;;;15.91;47.96
9325;BME280;4701;51.566;6.776;2023-05-03T18:56:44;102090.03;;;15.81;47.96
9325;BME280;4701;51.566;6.776;2023-05-03T18:59:48;102092.19;;;15.74;48.33
9325;BME280;4701;51.566;6.776;2023-05-03T19:02:54;102088.31;;;15.65;47.92
9325;BME280;4701;51.566;6.776;2023-05-03T19:05:59;102095.13;;;15.58;48.51
9325;BME280;4701;51.566;6.776;2023-05-03T19:09:06;102088.47;;;15.48;48.71
9325;BME280;4701;51.566;6.776;2023-05-03T19:12:11;102088.97;;;15.40;48.67
9325;BME280;4701;51.566;6.776;2023-05-03T19:15:15;102093.06;;;15.33;49.10
9325;BME280;4701;51.566;6.776;2023-05-03T19:18:18;102097.13;;;15.25;49.02
9325;BME280;4701;51.566;6.776;2023-05-03T19:21:20;102092.13;;;15.17;49.25
9325;BME280;4701;51.566;6.776;2023-05-03T19:24:22;102092.38;;;15.10;49.23
9325;BME280;4701;51.566;6.776;2023-05-03T19:27:24;102092.03;;;15.02;49.30
9325;BME280;4701;51.566;6.776;2023-05-03T19:30:26;102102.41;;;14.95;49.54
9325;BME280;4701;51.566;6.776;2023-05-03T19:33:30;102104.00;;;14.91;49.95
9325;BME280;4701;51.566;6.776;2023-05-03T19:36:34;102100.94;;;14.82;49.88
9325;BME280;4701;51.566;6.776;2023-05-03T19:39:37;102104.47;;;14.77;50.23
9325;BME280;4701;51.566;6.776;2023-05-03T19:42:39;102114.00;;;14.70;50.15
9325;BME280;4701;51.566;6.776;2023-05-03T19:45:41;102113.41;;;14.63;50.20
9325;BME280;4701;51.566;6.776;2023-05-03T19:48:44;102116.34;;;14.56;50.47
9325;BME280;4701;51.566;6.776;2023-05-03T19:51:46;102122.03;;;14.50;50.74
9325;BME280;4701;51.566;6.776;2023-05-03T19:54:51;102122.84;;;14.45;51.26
9325;BME280;4701;51.566;6.776;2023-05-03T19:57:53;102115.63;;;14.39;51.02
9325;BME280;4701;51.566;6.776;2023-05-03T20:00:56;102114.16;;;14.31;51.68
9325;BME280;4701;51.566;6.776;2023-05-03T20:04:00;102114.94;;;14.27;51.75
9325;BME280;4701;51.566;6.776;2023-05-03T20:07:02;102108.00;;;14.19;51.93
9325;BME280;4701;51.566;6.776;2023-05-03T20:10:05;102116.16;;;14.14;51.48
9325;BME280;4701;51.566;6.776;2023-05-03T20:13:07;102115.28;;;14.09;51.56
9325;BME280;4701;51.566;6.776;2023-05-03T20:16:09;102112.47;;;14.03;51.58
9325;BME280;4701;51.566;6.776;2023-05-03T20:19:12;102105.25;;;13.97;51.87
9325;BME280;4701;51.566;6.776;2023-05-03T20:22:15;102109.88;;;13.92;51.88
9325;BME280;4701;51.566;6.776;2023-05-03T20:25:17;102110.63;;;13.87;52.77
9325;BME280;4701;51.566;6.776;2023-05-03T20:28:19;102104.25;;;13.82;52.49
9325;BME280;4701;51.566;6.776;2023-05-03T20:31:21;102108.84;;;13.76;52.69
9325;BME280;4701;51.566;6.776;2023-05-03T20:34:24;102100.56;;;13.71;52.77
9325;BME280;4701;51.566;6.776;2023-05-03T20:37:27;102105.97;;;13.66;52.67
9325;BME280;4701;51.566;6.776;2023-05-03T20:40:29;102102.34;;;13.60;53.01
9325;BME280;4701;51.566;6.776;2023-05-03T20:43:32;102102.84;;;13.57;52.78
9325;BME280;4701;51.566;6.776;2023-05-03T20:46:33;102097.56;;;13.51;52.90
9325;BME280;4701;51.566;6.776;2023-05-03T20:49:39;102096.41;;;13.47;53.01
9325;BME280;4701;51.566;6.776;2023-05-03T20:53:03;102096.34;;;13.42;53.25
9325;BME280;4701;51.566;6.776;2023-05-03T20:56:06;102091.84;;;13.36;53.23
9325;BME280;4701;51.566;6.776;2023-05-03T20:59:08;102082.75;;;13.30;52.83
